Time;durP1;ratioP1;P1;durP2;ratioP2;P2;SDS_P1;SDS_P2;PMS_P1;PMS_P2;Temp;Humidity;BMP_temperature;BMP_pressure;BME280_temperature;BME280_humidity;BME280_pressure;Samples;Min_cycle;Max_cycle;Signal;HPM_P1;HPM_P2
2021/01/15 00:00:30;;;;;;;;;;;8.40;82.60;;;;;;2058302;28;19933;-75
2021/01/15 00:01:32;;;;;;;;;;;7.90;80.30;;;;;;2058025;28;19926;-75
2021/01/15 00:02:33;;;;;;;;;;;8.10;80.60;;;;;;2057791;28;19989;-75
2021/01/15 00:03:37;;;;;;;;;;;8.30;88.40;;;;;;2056848;28;20410;-75
2021/01/15 00:04:39;;;;;;;;;;;8.90;83.00;;;;;;2058187;28;20275;-75
2021/01/15 00:05:40;;;;;;;;;;;9.70;84.80;;;;;;2058621;28;19933;-75
2021/01/15 00:06:41;;;;;;;;;;;8.90;76.50;;;;;;2058278;28;19930;-74
2021/01/15 00:07:44;;;;;;;;;;;9.30;80.90;;;;;;2058353;28;19926;-75
2021/01/15 00:08:46;;;;;;;;;;;8.10;78.70;;;;;;2057600;28;19926;-75
2021/01/15 00:09:47;;;;;;;;;;;7.90;87.10;;;;;;2057235;28;19930;-75
2021/01/15 00:10:48;;;;;;;;;;;9.10;87.70;;;;;;2058032;28;19926;-75
2021/01/15 00:11:51;;;;;;;;;;;9.50;88.80;;;;;;2057933;28;19933;-75
2021/01/15 00:12:52;;;;;;;;;;;8.40;77.20;;;;;;2058077;28;19938;-75
2021/01/15 00:13:54;;;;;;;;;;;8.40;85.50;;;;;;2057968;28;19926;-75
2021/01/15 00:14:55;;;;;;;;;;;8.40;83.50;;;;;;2058022;28;19933;-75
2021/01/15 00:15:56;;;;;;;;;;;8.80;84.20;;;;;;2057933;28;19926;-75
2021/01/15 00:16:58;;;;;;;;;;;8.90;83.50;;;;;;2058053;28;19926;-75
2021/01/15 00:18:00;;;;;;;;;;;8.00;78.00;;;;;;2058295;28;19932;-75
2021/01/15 00:19:02;;;;;;;;;;;8.10;81.40;;;;;;2058531;28;20383;-75
2021/01/15 00:20:04;;;;;;;;;;;8.60;91.40;;;;;;2058265;28;20402;-76
2021/01/15 00:21:05;;;;;;;;;;;8.20;80.80;;;;;;2058205;28;19989;-75
2021/01/15 00:22:07;;;;;;;;;;;7.70;80.50;;;;;;2058176;28;19933;-74
2021/01/15 00:23:08;;;;;;;;;;;7.90;82.50;;;;;;2058325;28;19925;-75
2021/01/15 00:24:10;;;;;;;;;;;7.90;79.40;;;;;;2058057;28;20375;-74
2021/01/15 00:25:11;;;;;;;;;;;8.10;84.20;;;;;;2058126;28;19926;-76
2021/01/15 00:26:16;;;;;;;;;;;8.50;85.80;;;;;;2057984;28;19926;-75
2021/01/15 00:27:19;;;;;;;;;;;8.70;86.00;;;;;;2058143;28;19933;-75
2021/01/15 00:28:20;;;;;;;;;;;9.40;81.00;;;;;;2058017;28;19934;-75
2021/01/15 00:29:21;;;;;;;;;;;7.80;76.50;;;;;;2050195;28;19942;-76
2021/01/15 00:30:23;;;;;;;;;;;7.50;80.20;;;;;;2057430;28;19928;-77
2021/01/15 00:31:29;;;;;;;;;;;7.40;82.90;;;;;;2058694;28;19926;-77
2021/01/15 00:32:30;;;;;;;;;;;7.50;87.60;;;;;;2058280;28;19926;-77
2021/01/15 00:33:32;;;;;;;;;;;7.70;81.20;;;;;;2058210;28;19926;-76
2021/01/15 00:34:33;;;;;;;;;;;8.20;84.50;;;;;;2058122;28;19926;-76
2021/01/15 00:35:35;;;;;;;;;;;8.20;80.90;;;;;;2057892;28;19926;-75
2021/01/15 00:36:37;;;;;;;;;;;8.30;85.10;;;;;;2057811;28;20001;-75
2021/01/15 00:37:38;;;;;;;;;;;8.70;85.60;;;;;;2057902;28;19927;-75
2021/01/15 00:38:40;;;;;;;;;;;9.00;82.50;;;;;;2065447;28;19972;-76
2021/01/15 00:39:42;;;;;;;;;;;8.30;84.10;;;;;;2065046;28;19953;-75
2021/01/15 00:40:43;;;;;;;;;;;8.60;79.00;;;;;;2057959;28;19926;-76
2021/01/15 00:41:45;;;;;;;;;;;8.70;81.70;;;;;;2057642;28;19926;-76
2021/01/15 00:42:47;;;;;;;;;;;8.40;80.90;;;;;;2058032;28;19926;-75
2021/01/15 00:43:49;;;;;;;;;;;8.50;79.80;;;;;;2065410;28;19933;-75
2021/01/15 00:44:55;;;;;;;;;;;8.10;83.60;;;;;;2066168;28;19926;-75
2021/01/15 00:45:58;;;;;;;;;;;8.10;82.70;;;;;;2065329;28;19926;-75
2021/01/15 00:47:01;;;;;;;;;;;7.20;82.30;;;;;;2058996;28;19949;-75
2021/01/15 00:48:03;;;;;;;;;;;7.10;84.00;;;;;;2059120;28;19926;-76
2021/01/15 00:49:05;;;;;;;;;;;6.40;83.20;;;;;;2059252;28;19927;-76
2021/01/15 00:50:07;;;;;;;;;;;6.50;85.40;;;;;;2058949;28;19933;-75
2021/01/15 00:51:11;;;;;;;;;;;7.10;85.70;;;;;;2065932;28;19928;-77
2021/01/15 00:52:15;;;;;;;;;;;8.20;84.50;;;;;;2065686;28;19930;-76
2021/01/15 00:53:16;;;;;;;;;;;8.20;90.30;;;;;;2058395;28;19930;-75
2021/01/15 00:54:18;;;;;;;;;;;8.40;87.30;;;;;;2057759;28;19926;-75
2021/01/15 00:55:19;;;;;;;;;;;8.30;86.70;;;;;;2057500;28;19933;-76
2021/01/15 00:56:20;;;;;;;;;;;7.20;80.60;;;;;;2057842;28;20125;-75
2021/01/15 00:57:22;;;;;;;;;;;6.90;83.50;;;;;;2059413;28;20314;-76
2021/01/15 00:58:25;;;;;;;;;;;7.10;89.10;;;;;;2067680;28;19969;-76
2021/01/15 00:59:26;;;;;;;;;;;7.50;86.70;;;;;;2066984;28;19965;-75
2021/01/15 01:00:27;;;;;;;;;;;7.50;87.70;;;;;;2064587;28;19926;-75
2021/01/15 01:01:29;;;;;;;;;;;7.10;85.60;;;;;;2057144;28;20375;-75
2021/01/15 01:02:32;;;;;;;;;;;6.70;86.90;;;;;;2064604;28;19949;-74
2021/01/15 01:03:33;;;;;;;;;;;7.60;90.10;;;;;;2064339;28;19971;-76
2021/01/15 01:04:35;;;;;;;;;;;7.90;86.00;;;;;;2064744;28;19933;-75
2021/01/15 01:05:36;;;;;;;;;;;7.90;81.50;;;;;;2063807;28;20417;-75
2021/01/15 01:06:38;;;;;;;;;;;8.40;86.70;;;;;;2056996;28;19926;-75
2021/01/15 01:07:43;;;;;;;;;;;7.60;80.00;;;;;;2064461;28;19933;-75
2021/01/15 01:08:45;;;;;;;;;;;7.50;84.70;;;;;;2065114;28;19972;-75
2021/01/15 01:09:47;;;;;;;;;;;8.10;91.30;;;;;;2065248;28;19932;-75
2021/01/15 01:10:50;;;;;;;;;;;8.80;84.80;;;;;;2065183;28;19933;-75
2021/01/15 01:11:52;;;;;;;;;;;7.80;77.70;;;;;;2065503;28;20390;-77
2021/01/15 01:12:53;;;;;;;;;;;7.20;81.20;;;;;;2065440;28;19926;-75
2021/01/15 01:13:56;;;;;;;;;;;7.00;84.30;;;;;;2065268;28;19926;-76
2021/01/15 01:14:57;;;;;;;;;;;7.20;86.80;;;;;;2065621;28;20433;-75
2021/01/15 01:15:59;;;;;;;;;;;7.80;87.10;;;;;;2065464;28;19956;-75
2021/01/15 01:17:02;;;;;;;;;;;7.20;89.00;;;;;;2065553;28;19933;-75
2021/01/15 01:18:04;;;;;;;;;;;7.40;84.40;;;;;;2065620;28;19926;-75
2021/01/15 01:19:06;;;;;;;;;;;8.10;88.90;;;;;;2065579;28;19937;-75
2021/01/15 01:20:08;;;;;;;;;;;7.70;82.30;;;;;;2065973;28;19933;-74
2021/01/15 01:21:09;;;;;;;;;;;7.80;81.10;;;;;;2065848;28;20088;-75
2021/01/15 01:22:11;;;;;;;;;;;7.30;81.90;;;;;;2065315;28;19933;-76
2021/01/15 01:23:12;;;;;;;;;;;7.40;81.70;;;;;;2057669;28;19926;-76
2021/01/15 01:24:13;;;;;;;;;;;7.10;87.00;;;;;;2057744;28;19933;-75
2021/01/15 01:25:15;;;;;;;;;;;7.30;89.90;;;;;;2057887;28;19926;-75
2021/01/15 01:26:17;;;;;;;;;;;7.30;83.70;;;;;;2058028;28;19926;-75
2021/01/15 01:27:18;;;;;;;;;;;6.50;83.50;;;;;;2057871;28;19926;-75
2021/01/15 01:28:20;;;;;;;;;;;6.80;87.00;;;;;;2057455;28;19933;-76
2021/01/15 01:29:22;;;;;;;;;;;7.30;83.90;;;;;;2057095;28;19933;-76
2021/01/15 01:30:24;;;;;;;;;;;6.80;84.30;;;;;;2057272;28;19930;-75
2021/01/15 01:31:25;;;;;;;;;;;7.30;85.90;;;;;;2057387;28;19933;-75
2021/01/15 01:32:27;;;;;;;;;;;7.50;86.30;;;;;;2057151;28;19926;-75
2021/01/15 01:33:28;;;;;;;;;;;6.80;83.20;;;;;;2057366;28;19926;-76
2021/01/15 01:34:30;;;;;;;;;;;6.70;83.90;;;;;;2057230;28;19926;-76
2021/01/15 01:35:31;;;;;;;;;;;6.70;84.50;;;;;;2057087;28;19926;-76
2021/01/15 01:36:33;;;;;;;;;;;7.10;91.00;;;;;;2057292;28;20196;-75
2021/01/15 01:37:35;;;;;;;;;;;6.30;84.80;;;;;;2056527;28;20375;-75
2021/01/15 01:38:36;;;;;;;;;;;6.70;89.10;;;;;;2048719;28;19937;-75
2021/01/15 01:39:38;;;;;;;;;;;5.90;86.00;;;;;;2057134;28;19933;-76
2021/01/15 01:40:40;;;;;;;;;;;6.90;89.30;;;;;;2057624;28;19949;-75
2021/01/15 01:41:41;;;;;;;;;;;7.10;89.70;;;;;;2057578;28;19934;-77
2021/01/15 01:42:42;;;;;;;;;;;7.40;89.90;;;;;;2057811;28;19986;-75
2021/01/15 01:43:44;;;;;;;;;;;6.70;83.30;;;;;;2058086;28;19926;-74
2021/01/15 01:44:46;;;;;;;;;;;6.40;85.10;;;;;;2057876;28;19926;-75
2021/01/15 01:45:48;;;;;;;;;;;6.30;85.20;;;;;;2057274;28;19933;-75
2021/01/15 01:46:49;;;;;;;;;;;6.90;89.60;;;;;;2057336;28;19926;-76
2021/01/15 01:47:52;;;;;;;;;;;6.90;85.10;;;;;;2057836;28;19926;-76
2021/01/15 01:48:53;;;;;;;;;;;7.10;90.60;;;;;;2058165;28;19926;-75
2021/01/15 01:49:55;;;;;;;;;;;6.80;88.20;;;;;;2057484;28;19926;-75
2021/01/15 01:50:56;;;;;;;;;;;6.90;89.60;;;;;;2049648;28;19930;-75
2021/01/15 01:51:59;;;;;;;;;;;7.30;91.70;;;;;;2057582;28;19926;-75
2021/01/15 01:53:01;;;;;;;;;;;7.30;84.20;;;;;;2057995;28;19981;-76
2021/01/15 01:54:04;;;;;;;;;;;7.40;90.80;;;;;;2057204;28;19949;-75
2021/01/15 01:55:05;;;;;;;;;;;6.90;84.00;;;;;;2057112;28;19926;-76
2021/01/15 01:56:07;;;;;;;;;;;6.20;84.00;;;;;;2056345;28;19930;-75
2021/01/15 01:57:08;;;;;;;;;;;6.90;86.50;;;;;;2056365;28;20334;-75
2021/01/15 01:58:10;;;;;;;;;;;6.50;85.10;;;;;;2056843;28;20371;-75
2021/01/15 01:59:12;;;;;;;;;;;6.40;84.10;;;;;;2057134;28;19937;-76
2021/01/15 02:00:15;;;;;;;;;;;6.50;92.00;;;;;;2057175;28;19933;-75
2021/01/15 02:01:17;;;;;;;;;;;7.00;89.70;;;;;;2057207;28;20017;-75
2021/01/15 02:02:19;;;;;;;;;;;7.20;85.80;;;;;;2057330;28;20351;-75
2021/01/15 02:03:20;;;;;;;;;;;6.90;83.00;;;;;;2057415;28;20389;-75
2021/01/15 02:04:22;;;;;;;;;;;7.40;90.80;;;;;;2057490;28;19926;-75
2021/01/15 02:05:23;;;;;;;;;;;6.80;82.10;;;;;;2057717;28;19933;-74
2021/01/15 02:06:26;;;;;;;;;;;6.80;83.80;;;;;;2057486;28;20366;-75
2021/01/15 02:07:27;;;;;;;;;;;7.20;85.00;;;;;;2062684;28;19926;-74
2021/01/15 02:08:28;;;;;;;;;;;7.00;81.70;;;;;;2065867;28;19933;-75
2021/01/15 02:09:33;;;;;;;;;;;7.20;86.60;;;;;;2065759;28;19941;-75
2021/01/15 02:10:40;;;;;;;;;;;6.60;83.80;;;;;;2073155;28;19925;-75
2021/01/15 02:11:46;;;;;;;;;;;6.50;84.80;;;;;;2072115;28;19925;-75
2021/01/15 02:12:54;;;;;;;;;;;6.10;85.00;;;;;;2065554;28;20437;-75
2021/01/15 02:14:00;;;;;;;;;;;6.10;87.40;;;;;;2065152;28;19947;-75
2021/01/15 02:15:03;;;;;;;;;;;5.70;85.70;;;;;;2065373;28;19930;-75
2021/01/15 02:16:08;;;;;;;;;;;5.70;87.60;;;;;;2065695;28;20357;-75
2021/01/15 02:17:13;;;;;;;;;;;5.30;86.70;;;;;;2066735;28;20382;-76
2021/01/15 02:18:19;;;;;;;;;;;5.80;87.50;;;;;;2067876;28;19969;-75
2021/01/15 02:19:32;;;;;;;;;;;6.50;91.60;;;;;;2067341;28;19926;-75
2021/01/15 02:20:54;;;;;;;;;;;6.60;87.90;;;;;;2066402;28;19926;-75
2021/01/15 02:22:14;;;;;;;;;;;7.00;90.30;;;;;;2066508;28;20327;-75
2021/01/15 02:23:19;;;;;;;;;;;6.30;83.00;;;;;;2058255;28;20264;-75
2021/01/15 02:24:30;;;;;;;;;;;6.40;84.70;;;;;;2058435;28;20399;-75
2021/01/15 02:25:51;;;;;;;;;;;6.40;84.40;;;;;;2058508;28;19933;-75
2021/01/15 02:27:07;;;;;;;;;;;6.80;90.50;;;;;;2058575;28;19926;-75
2021/01/15 02:28:26;;;;;;;;;;;5.90;85.00;;;;;;2057921;28;19935;-74
2021/01/15 02:29:29;;;;;;;;;;;6.50;83.20;;;;;;2060902;28;20277;-76
2021/01/15 02:30:41;;;;;;;;;;;7.10;85.10;;;;;;2073606;28;19926;-75
2021/01/15 02:32:06;;;;;;;;;;;6.50;82.90;;;;;;2074249;28;19925;-75
2021/01/15 02:33:15;;;;;;;;;;;6.90;87.50;;;;;;2068255;28;20422;-76
2021/01/15 02:34:26;;;;;;;;;;;5.80;83.20;;;;;;2059561;28;19950;-74
2021/01/15 02:35:35;;;;;;;;;;;6.60;91.20;;;;;;2059096;28;19941;-75
2021/01/15 02:36:37;;;;;;;;;;;5.60;84.90;;;;;;2060929;28;19930;-76
2021/01/15 02:37:44;;;;;;;;;;;5.50;86.20;;;;;;2061280;28;20374;-75
2021/01/15 02:38:48;;;;;;;;;;;6.10;91.70;;;;;;2059748;28;19946;-76
2021/01/15 02:39:58;;;;;;;;;;;6.20;87.60;;;;;;2058408;28;20403;-75
2021/01/15 02:41:27;;;;;;;;;;;6.50;89.00;;;;;;2058468;28;19926;-75
2021/01/15 02:42:30;;;;;;;;;;;6.70;88.50;;;;;;2065399;28;19933;-75
2021/01/15 02:43:34;;;;;;;;;;;6.80;83.90;;;;;;2060646;28;20085;-75
2021/01/15 02:44:36;;;;;;;;;;;7.20;87.80;;;;;;2058346;28;20290;-75
2021/01/15 02:45:38;;;;;;;;;;;7.50;90.10;;;;;;2073965;28;20308;-75
2021/01/15 02:46:51;;;;;;;;;;;8.00;80.70;;;;;;2073081;28;19983;-76
2021/01/15 02:47:53;;;;;;;;;;;8.70;83.30;;;;;;2057813;28;20005;-75
2021/01/15 02:48:57;;;;;;;;;;;8.80;84.50;;;;;;2057947;28;20394;-75
2021/01/15 02:50:00;;;;;;;;;;;9.10;84.30;;;;;;2058630;28;19926;-75
2021/01/15 02:51:02;;;;;;;;;;;8.90;79.10;;;;;;2058616;28;20064;-76
2021/01/15 02:52:04;;;;;;;;;;;8.80;76.40;;;;;;2058555;28;19926;-76
2021/01/15 02:53:06;;;;;;;;;;;8.10;82.70;;;;;;2058466;28;19930;-76
2021/01/15 02:54:08;;;;;;;;;;;9.10;84.90;;;;;;2058362;28;19934;-75
2021/01/15 02:55:10;;;;;;;;;;;8.40;79.30;;;;;;2058514;28;20363;-75
2021/01/15 02:56:12;;;;;;;;;;;9.10;79.30;;;;;;2058609;28;20323;-75
2021/01/15 02:57:14;;;;;;;;;;;8.00;82.60;;;;;;2058467;28;20268;-75
2021/01/15 02:58:15;;;;;;;;;;;7.80;78.50;;;;;;2057919;28;20438;-75
2021/01/15 02:59:17;;;;;;;;;;;8.10;83.80;;;;;;2058293;28;19930;-75
2021/01/15 03:00:19;;;;;;;;;;;9.30;85.10;;;;;;2058968;28;19926;-76
2021/01/15 03:01:21;;;;;;;;;;;9.40;78.80;;;;;;2058664;28;19933;-75
2021/01/15 03:02:26;;;;;;;;;;;9.30;83.30;;;;;;2058846;28;19926;-75
2021/01/15 03:03:30;;;;;;;;;;;8.40;75.60;;;;;;2058923;28;19933;-76
2021/01/15 03:04:36;;;;;;;;;;;7.70;76.70;;;;;;2058375;28;20005;-75
2021/01/15 03:05:38;;;;;;;;;;;7.30;80.00;;;;;;2058286;28;20394;-76
2021/01/15 03:06:43;;;;;;;;;;;7.80;83.10;;;;;;2058979;28;19965;-75
2021/01/15 03:07:46;;;;;;;;;;;7.60;81.50;;;;;;2059296;28;19926;-75
2021/01/15 03:08:48;;;;;;;;;;;9.10;88.00;;;;;;2059453;28;19937;-76
2021/01/15 03:09:53;;;;;;;;;;;9.20;79.80;;;;;;2058691;28;20038;-75
2021/01/15 03:10:59;;;;;;;;;;;9.50;77.90;;;;;;2058483;28;20299;-76
2021/01/15 03:12:01;;;;;;;;;;;9.50;83.20;;;;;;2058667;28;19926;-76
2021/01/15 03:13:03;;;;;;;;;;;9.60;75.50;;;;;;2058527;28;19926;-76
2021/01/15 03:14:06;;;;;;;;;;;9.80;73.30;;;;;;2058529;28;19926;-76
2021/01/15 03:15:08;;;;;;;;;;;9.20;74.00;;;;;;2058468;28;19933;-75
2021/01/15 03:16:12;;;;;;;;;;;9.00;73.70;;;;;;2058548;28;19933;-76
2021/01/15 03:17:15;;;;;;;;;;;9.30;81.80;;;;;;2058759;28;19927;-75
2021/01/15 03:18:18;;;;;;;;;;;9.90;80.30;;;;;;2058392;28;19994;-76
2021/01/15 03:19:19;;;;;;;;;;;10.80;79.20;;;;;;2058376;28;19926;-75
2021/01/15 03:20:23;;;;;;;;;;;10.70;73.40;;;;;;2059415;28;20379;-76
2021/01/15 03:21:26;;;;;;;;;;;9.90;67.20;;;;;;2059180;28;19953;-76
2021/01/15 03:22:27;;;;;;;;;;;9.40;68.80;;;;;;2062168;28;19926;-76
2021/01/15 03:23:34;;;;;;;;;;;9.40;74.20;;;;;;2067098;28;20073;-76
2021/01/15 03:24:36;;;;;;;;;;;9.60;71.10;;;;;;2059560;28;19933;-75
2021/01/15 03:25:37;;;;;;;;;;;9.80;78.70;;;;;;2059077;28;19930;-75
2021/01/15 03:26:39;;;;;;;;;;;10.10;71.80;;;;;;2066076;28;19926;-75
2021/01/15 03:27:42;;;;;;;;;;;10.80;75.50;;;;;;2066195;28;20286;-76
2021/01/15 03:28:44;;;;;;;;;;;10.70;66.90;;;;;;2064799;28;19925;-75
2021/01/15 03:29:48;;;;;;;;;;;9.40;66.10;;;;;;2062165;28;19926;-75
2021/01/15 03:30:50;;;;;;;;;;;8.70;68.40;;;;;;2058367;28;19934;-75
2021/01/15 03:31:51;;;;;;;;;;;8.60;73.00;;;;;;2057711;28;20023;-75
2021/01/15 03:32:54;;;;;;;;;;;8.10;74.30;;;;;;2057505;28;20379;-75
2021/01/15 03:33:55;;;;;;;;;;;8.70;79.70;;;;;;2058644;28;19926;-76
2021/01/15 03:34:57;;;;;;;;;;;9.50;80.60;;;;;;2058449;28;19937;-76
2021/01/15 03:36:00;;;;;;;;;;;9.60;76.10;;;;;;2058252;28;19926;-76
2021/01/15 03:37:01;;;;;;;;;;;8.80;71.60;;;;;;2057263;28;19926;-76
2021/01/15 03:38:04;;;;;;;;;;;9.00;75.20;;;;;;2057744;28;19973;-75
2021/01/15 03:39:05;;;;;;;;;;;8.70;75.70;;;;;;2057686;28;19930;-75
2021/01/15 03:40:07;;;;;;;;;;;8.50;74.00;;;;;;2057453;28;20255;-75
2021/01/15 03:41:09;;;;;;;;;;;9.50;82.30;;;;;;2058003;28;20294;-75
2021/01/15 03:42:10;;;;;;;;;;;10.20;75.20;;;;;;2057763;28;19926;-76
2021/01/15 03:43:12;;;;;;;;;;;10.10;75.10;;;;;;2058585;28;20318;-76
2021/01/15 03:44:14;;;;;;;;;;;10.30;71.10;;;;;;2058428;28;19926;-75
2021/01/15 03:45:15;;;;;;;;;;;10.70;72.70;;;;;;2058438;28;19949;-75
2021/01/15 03:46:17;;;;;;;;;;;10.60;67.20;;;;;;2058260;28;19930;-75
2021/01/15 03:47:19;;;;;;;;;;;9.20;73.60;;;;;;2058556;28;20016;-75
2021/01/15 03:48:22;;;;;;;;;;;9.30;73.50;;;;;;2058609;28;20374;-75
2021/01/15 03:49:23;;;;;;;;;;;8.90;72.50;;;;;;2057982;28;19942;-75
2021/01/15 03:50:24;;;;;;;;;;;9.00;80.00;;;;;;2057895;28;20494;-75
2021/01/15 03:51:27;;;;;;;;;;;9.60;78.50;;;;;;2059513;28;19926;-75
2021/01/15 03:52:28;;;;;;;;;;;10.10;77.10;;;;;;2059207;28;19933;-75
2021/01/15 03:53:29;;;;;;;;;;;10.00;77.00;;;;;;2059253;28;20185;-75
2021/01/15 03:54:31;;;;;;;;;;;10.80;77.40;;;;;;2059769;28;19926;-75
2021/01/15 03:55:33;;;;;;;;;;;9.80;66.10;;;;;;2059635;28;19926;-75
2021/01/15 03:56:34;;;;;;;;;;;9.80;68.30;;;;;;2059506;28;19926;-75
2021/01/15 03:57:35;;;;;;;;;;;8.30;69.00;;;;;;2059591;28;19926;-75
2021/01/15 03:58:37;;;;;;;;;;;8.10;78.10;;;;;;2059688;28;19937;-75
2021/01/15 03:59:39;;;;;;;;;;;7.40;74.20;;;;;;2059166;28;19933;-75
2021/01/15 04:00:40;;;;;;;;;;;7.60;77.50;;;;;;2059161;28;19926;-75
2021/01/15 04:01:42;;;;;;;;;;;8.30;84.20;;;;;;2058366;28;19926;-75
2021/01/15 04:02:46;;;;;;;;;;;8.70;79.00;;;;;;2058766;28;19961;-75
2021/01/15 04:03:48;;;;;;;;;;;8.60;74.50;;;;;;2058276;28;20318;-75
2021/01/15 04:04:49;;;;;;;;;;;8.40;77.00;;;;;;2058382;28;19933;-75
2021/01/15 04:05:51;;;;;;;;;;;9.40;77.00;;;;;;2058091;28;20290;-75
2021/01/15 04:06:53;;;;;;;;;;;9.40;81.50;;;;;;2058561;28;19933;-75
2021/01/15 04:07:54;;;;;;;;;;;7.90;69.80;;;;;;2066339;28;19933;-76
2021/01/15 04:08:56;;;;;;;;;;;8.00;73.40;;;;;;2066422;28;19926;-75
2021/01/15 04:09:57;;;;;;;;;;;7.60;74.60;;;;;;2066596;28;20286;-75
2021/01/15 04:10:59;;;;;;;;;;;8.20;80.50;;;;;;2066292;28;20275;-75
2021/01/15 04:12:01;;;;;;;;;;;7.80;77.80;;;;;;2066590;28;19941;-75
2021/01/15 04:13:03;;;;;;;;;;;7.30;75.90;;;;;;2066564;28;19926;-75
2021/01/15 04:14:04;;;;;;;;;;;7.50;81.00;;;;;;2066975;28;19933;-75
2021/01/15 04:15:06;;;;;;;;;;;7.10;74.70;;;;;;2068489;28;20343;-75
2021/01/15 04:16:11;;;;;;;;;;;7.20;84.20;;;;;;2068647;28;19926;-76
2021/01/15 04:17:13;;;;;;;;;;;8.00;84.20;;;;;;2068585;28;19925;-75
2021/01/15 04:18:15;;;;;;;;;;;7.20;79.50;;;;;;2066615;28;20290;-75
2021/01/15 04:19:16;;;;;;;;;;;6.70;82.20;;;;;;2066163;28;19929;-75
2021/01/15 04:20:17;;;;;;;;;;;6.80;82.90;;;;;;2074317;28;19925;-76
2021/01/15 04:21:19;;;;;;;;;;;7.90;89.90;;;;;;2065760;28;19926;-75
2021/01/15 04:22:21;;;;;;;;;;;9.10;83.80;;;;;;2065465;28;20003;-75
2021/01/15 04:23:22;;;;;;;;;;;9.00;78.00;;;;;;2066766;28;19932;-76
2021/01/15 04:24:24;;;;;;;;;;;7.60;75.90;;;;;;2066745;28;19925;-75
2021/01/15 04:25:26;;;;;;;;;;;7.80;77.30;;;;;;2069110;28;19926;-75
2021/01/15 04:26:27;;;;;;;;;;;6.90;76.40;;;;;;2068546;28;19933;-75
2021/01/15 04:27:29;;;;;;;;;;;7.40;78.20;;;;;;2067789;28;19925;-75
2021/01/15 04:28:30;;;;;;;;;;;7.20;78.10;;;;;;2065692;28;19932;-75
2021/01/15 04:29:31;;;;;;;;;;;6.90;80.20;;;;;;2065486;28;19926;-75
2021/01/15 04:30:33;;;;;;;;;;;7.50;77.40;;;;;;2065624;28;20358;-75
2021/01/15 04:31:35;;;;;;;;;;;8.20;81.60;;;;;;2065839;28;19926;-75
2021/01/15 04:32:42;;;;;;;;;;;8.30;81.10;;;;;;2066011;28;20000;-76
2021/01/15 04:33:43;;;;;;;;;;;7.70;78.70;;;;;;2066213;28;19933;-75
2021/01/15 04:34:45;;;;;;;;;;;8.10;75.60;;;;;;2066364;28;19937;-75
2021/01/15 04:35:47;;;;;;;;;;;8.40;84.40;;;;;;2066965;28;20366;-75
2021/01/15 04:36:49;;;;;;;;;;;9.40;77.30;;;;;;2066880;28;19949;-75
2021/01/15 04:37:51;;;;;;;;;;;9.00;78.00;;;;;;2067090;28;19926;-75
2021/01/15 04:38:53;;;;;;;;;;;7.70;73.40;;;;;;2066837;28;19925;-75
2021/01/15 04:39:54;;;;;;;;;;;7.40;78.90;;;;;;2066479;28;20297;-75
2021/01/15 04:40:56;;;;;;;;;;;8.20;80.10;;;;;;2066767;28;20409;-75
2021/01/15 04:41:58;;;;;;;;;;;7.20;74.90;;;;;;2067367;28;19993;-74
2021/01/15 04:43:00;;;;;;;;;;;7.20;79.00;;;;;;2067062;28;19926;-75
2021/01/15 04:44:03;;;;;;;;;;;7.10;80.30;;;;;;2066593;28;19933;-75
2021/01/15 04:45:05;;;;;;;;;;;7.80;85.60;;;;;;2065830;28;19926;-75
2021/01/15 04:46:06;;;;;;;;;;;8.00;83.90;;;;;;2065964;28;19933;-74
2021/01/15 04:47:13;;;;;;;;;;;7.10;75.60;;;;;;2065705;28;20016;-74
2021/01/15 04:48:16;;;;;;;;;;;7.70;77.60;;;;;;2058510;28;19929;-75
2021/01/15 04:49:20;;;;;;;;;;;7.10;78.70;;;;;;2066279;28;20347;-75
2021/01/15 04:50:21;;;;;;;;;;;7.30;80.30;;;;;;2073512;28;19925;-75
2021/01/15 04:51:24;;;;;;;;;;;6.80;79.30;;;;;;2066078;28;19926;-75
2021/01/15 04:52:25;;;;;;;;;;;7.60;82.80;;;;;;2065762;28;19926;-75
2021/01/15 04:53:35;;;;;;;;;;;7.40;78.60;;;;;;2057575;28;19927;-75
2021/01/15 04:54:37;;;;;;;;;;;7.40;79.10;;;;;;2065102;28;19938;-75
2021/01/15 04:55:41;;;;;;;;;;;6.70;77.20;;;;;;2065898;28;20290;-75
2021/01/15 04:56:47;;;;;;;;;;;6.60;78.10;;;;;;2066592;28;19926;-74
2021/01/15 04:57:50;;;;;;;;;;;6.20;81.70;;;;;;2067333;28;19926;-76
2021/01/15 04:58:51;;;;;;;;;;;6.90;85.10;;;;;;2066984;28;20337;-76
2021/01/15 04:59:53;;;;;;;;;;;6.20;80.60;;;;;;2066885;28;19926;-75
2021/01/15 05:00:57;;;;;;;;;;;5.90;85.40;;;;;;2066728;28;20437;-74
2021/01/15 05:02:05;;;;;;;;;;;6.90;88.90;;;;;;2065461;28;19925;-75
2021/01/15 05:03:08;;;;;;;;;;;7.20;84.10;;;;;;2066096;28;19937;-75
2021/01/15 05:04:11;;;;;;;;;;;6.60;85.70;;;;;;2066511;28;19937;-75
2021/01/15 05:05:18;;;;;;;;;;;6.40;83.30;;;;;;2065965;28;19926;-75
2021/01/15 05:06:21;;;;;;;;;;;6.50;82.20;;;;;;2065508;28;19932;-74
2021/01/15 05:07:26;;;;;;;;;;;6.60;83.50;;;;;;2065573;28;19926;-75
2021/01/15 05:08:28;;;;;;;;;;;7.30;80.70;;;;;;2065558;28;19937;-75
2021/01/15 05:09:37;;;;;;;;;;;7.70;84.20;;;;;;2065690;28;19932;-75
2021/01/15 05:10:39;;;;;;;;;;;7.60;80.10;;;;;;2065445;28;19926;-75
2021/01/15 05:11:42;;;;;;;;;;;6.90;79.10;;;;;;2065462;28;19926;-75
2021/01/15 05:12:45;;;;;;;;;;;6.70;79.40;;;;;;2065800;28;20371;-75
2021/01/15 05:13:49;;;;;;;;;;;6.60;83.20;;;;;;2065873;28;19926;-75
2021/01/15 05:14:51;;;;;;;;;;;6.50;82.60;;;;;;2065681;28;20321;-75
2021/01/15 05:15:53;;;;;;;;;;;6.40;81.10;;;;;;2065309;28;20318;-75
2021/01/15 05:16:59;;;;;;;;;;;6.80;85.10;;;;;;2064825;28;19925;-75
2021/01/15 05:18:02;;;;;;;;;;;6.30;80.90;;;;;;2057409;28;20322;-76
2021/01/15 05:19:04;;;;;;;;;;;7.20;88.90;;;;;;2064858;28;19930;-75
2021/01/15 05:20:07;;;;;;;;;;;6.00;81.90;;;;;;2065511;28;20290;-76
2021/01/15 05:21:08;;;;;;;;;;;6.00;83.70;;;;;;2065508;28;19926;-75
2021/01/15 05:22:10;;;;;;;;;;;6.10;82.30;;;;;;2064787;28;19925;-74
2021/01/15 05:23:11;;;;;;;;;;;6.60;82.70;;;;;;2057616;28;19926;-75
2021/01/15 05:24:13;;;;;;;;;;;6.50;81.30;;;;;;2057310;28;20311;-75
2021/01/15 05:25:15;;;;;;;;;;;6.10;80.80;;;;;;2056926;28;19933;-75
2021/01/15 05:26:17;;;;;;;;;;;5.70;82.80;;;;;;2056739;28;19926;-74
2021/01/15 05:28:40;;;;;;;;;;;5.50;84.80;;;;;;2057762;28;19933;-75
2021/01/15 05:29:42;;;;;;;;;;;5.70;84.60;;;;;;2060227;28;20338;-76
2021/01/15 05:30:43;;;;;;;;;;;6.70;90.90;;;;;;2065831;28;19926;-75
2021/01/15 05:31:49;;;;;;;;;;;6.80;84.10;;;;;;2065729;28;19945;-75
2021/01/15 05:32:51;;;;;;;;;;;6.40;84.30;;;;;;2065957;28;20422;-75
2021/01/15 05:34:02;;;;;;;;;;;6.80;84.90;;;;;;2066162;28;19925;-75
2021/01/15 05:35:04;;;;;;;;;;;7.00;88.10;;;;;;2066177;28;20121;-75
2021/01/15 05:36:06;;;;;;;;;;;7.30;79.00;;;;;;2066215;28;19988;-75
2021/01/15 05:37:07;;;;;;;;;;;7.80;83.80;;;;;;2066586;28;19930;-75
2021/01/15 05:38:10;;;;;;;;;;;6.80;77.70;;;;;;2066628;28;20397;-76
2021/01/15 05:39:13;;;;;;;;;;;7.20;79.70;;;;;;2066598;28;20401;-75
2021/01/15 05:40:16;;;;;;;;;;;7.50;84.40;;;;;;2066657;28;19933;-75
2021/01/15 05:41:21;;;;;;;;;;;7.30;77.60;;;;;;2066447;28;19925;-75
2021/01/15 05:42:22;;;;;;;;;;;6.40;78.10;;;;;;2066645;28;20383;-74
2021/01/15 05:43:24;;;;;;;;;;;6.10;80.20;;;;;;2066659;28;19926;-75
2021/01/15 05:44:26;;;;;;;;;;;5.80;82.00;;;;;;2066640;28;19932;-75
2021/01/15 05:45:28;;;;;;;;;;;5.50;81.10;;;;;;2066075;28;19937;-75
2021/01/15 05:46:29;;;;;;;;;;;5.90;83.10;;;;;;2066701;28;19929;-75
2021/01/15 05:47:41;;;;;;;;;;;6.00;82.00;;;;;;2066789;28;19941;-75
2021/01/15 05:48:43;;;;;;;;;;;6.10;81.30;;;;;;2066225;28;19926;-75
2021/01/15 05:49:54;;;;;;;;;;;5.50;81.80;;;;;;2066834;28;20271;-75
2021/01/15 05:51:00;;;;;;;;;;;5.80;86.10;;;;;;2066740;28;19969;-75
2021/01/15 05:52:06;;;;;;;;;;;6.90;85.10;;;;;;2067110;28;19925;-75
2021/01/15 05:53:07;;;;;;;;;;;6.70;80.20;;;;;;2069386;28;19949;-75
2021/01/15 05:54:09;;;;;;;;;;;6.60;78.70;;;;;;2068934;28;19926;-75
2021/01/15 05:55:11;;;;;;;;;;;7.60;83.70;;;;;;2067997;28;20378;-74
2021/01/15 05:56:13;;;;;;;;;;;7.20;78.90;;;;;;2075038;28;20378;-75
2021/01/15 05:57:24;;;;;;;;;;;7.20;79.90;;;;;;2074778;28;19956;-75
2021/01/15 05:58:25;;;;;;;;;;;6.70;76.60;;;;;;2067215;28;20362;-75
2021/01/15 05:59:27;;;;;;;;;;;6.30;82.90;;;;;;2066798;28;19926;-75
2021/01/15 06:00:34;;;;;;;;;;;6.00;78.50;;;;;;2066555;28;20005;-75
2021/01/15 06:01:46;;;;;;;;;;;6.30;83.50;;;;;;2067290;28;19925;-74
2021/01/15 06:02:47;;;;;;;;;;;6.30;81.90;;;;;;2067904;28;19972;-75
2021/01/15 06:03:53;;;;;;;;;;;6.40;81.50;;;;;;2067699;28;19955;-77
2021/01/15 06:04:55;;;;;;;;;;;6.20;80.80;;;;;;2068282;28;19925;-75
2021/01/15 06:05:57;;;;;;;;;;;6.30;82.30;;;;;;2068039;28;19938;-75
2021/01/15 06:06:59;;;;;;;;;;;6.40;82.60;;;;;;2075387;28;20439;-75
2021/01/15 06:08:01;;;;;;;;;;;6.30;83.00;;;;;;2075169;28;20381;-75
2021/01/15 06:09:03;;;;;;;;;;;6.50;78.70;;;;;;2068146;28;19926;-76
2021/01/15 06:10:04;;;;;;;;;;;6.60;82.00;;;;;;2075629;28;19926;-75
2021/01/15 06:11:19;;;;;;;;;;;7.00;87.60;;;;;;2075453;28;20349;-75
2021/01/15 06:12:22;;;;;;;;;;;8.40;84.70;;;;;;2068455;28;19933;-76
2021/01/15 06:13:36;;;;;;;;;;;7.80;75.80;;;;;;2067334;28;20309;-75